Time;durP1;ratioP1;P1;durP2;ratioP2;P2;SDS_P1;SDS_P2;PMS_P1;PMS_P2;Temp;Humidity;BMP_temperature;BMP_pressure;BME280_temperature;BME280_humidity;BME280_pressure;Samples;Min_cycle;Max_cycle;Signal;HPM_P1;HPM_P2
2023/12/31 00:00:41;;;;;;;62.67;33.88;;;2.80;99.90;;;;;;5082709;28;20634;-78
2023/12/31 00:03:07;;;;;;;68.93;36.78;;;2.80;99.90;;;;;;5073935;28;20024;-77
2023/12/31 00:05:33;;;;;;;84.18;44.10;;;2.80;99.90;;;;;;5077227;28;20501;-78
2023/12/31 00:07:59;;;;;;;84.03;41.78;;;2.80;99.90;;;;;;5080925;28;20022;-78
2023/12/31 00:10:25;;;;;;;94.22;47.65;;;2.80;99.90;;;;;;5085533;28;20058;-78
2023/12/31 00:12:51;;;;;;;101.93;51.17;;;2.80;99.90;;;;;;5079169;28;20016;-77
2023/12/31 00:15:16;;;;;;;83.30;41.65;;;2.80;99.90;;;;;;5067429;28;20297;-77
2023/12/31 00:17:42;;;;;;;81.35;40.47;;;2.80;99.90;;;;;;5078877;28;20016;-78
2023/12/31 00:20:08;;;;;;;65.05;34.78;;;2.70;99.90;;;;;;5056726;28;20107;-77
2023/12/31 00:22:34;;;;;;;67.03;34.03;;;2.70;99.90;;;;;;5084607;28;20073;-78
2023/12/31 00:25:00;;;;;;;58.38;32.30;;;2.70;99.90;;;;;;5063201;28;20401;-78
2023/12/31 00:27:26;;;;;;;66.20;35.08;;;2.60;99.90;;;;;;5073251;28;20162;-78
2023/12/31 00:29:52;;;;;;;55.80;32.05;;;2.60;99.90;;;;;;5055600;28;20039;-78
2023/12/31 00:32:17;;;;;;;61.38;32.58;;;2.60;99.90;;;;;;5055730;28;20049;-78
2023/12/31 00:34:43;;;;;;;61.03;31.02;;;2.60;99.90;;;;;;5060643;28;20028;-78
2023/12/31 00:37:08;;;;;;;55.65;30.75;;;2.60;99.90;;;;;;5055602;28;20021;-78
2023/12/31 00:39:34;;;;;;;53.58;29.92;;;2.50;99.90;;;;;;5076866;28;20028;-78
2023/12/31 00:42:00;;;;;;;59.80;31.23;;;2.50;99.90;;;;;;5056577;28;20025;-77
2023/12/31 00:44:25;;;;;;;64.60;32.35;;;2.40;99.90;;;;;;5073425;28;20040;-78
2023/12/31 00:46:51;;;;;;;62.63;32.15;;;2.40;99.90;;;;;;5083404;28;20033;-76
2023/12/31 00:49:17;;;;;;;58.90;29.02;;;2.40;99.90;;;;;;5074336;28;20048;-75
2023/12/31 00:51:44;;;;;;;63.40;30.77;;;2.20;99.90;;;;;;5081927;28;20099;-78
2023/12/31 00:54:10;;;;;;;60.05;31.98;;;2.10;99.90;;;;;;5057665;28;20024;-76
2023/12/31 00:56:36;;;;;;;101.45;49.47;;;2.10;99.90;;;;;;5088120;28;20069;-78
2023/12/31 00:59:02;;;;;;;81.35;42.83;;;2.00;99.90;;;;;;5080080;28;20016;-76
2023/12/31 01:01:28;;;;;;;79.30;38.88;;;2.00;99.90;;;;;;5073580;28;20025;-78
2023/12/31 01:03:54;;;;;;;70.30;35.60;;;1.90;99.90;;;;;;5083195;28;20432;-76
2023/12/31 01:06:19;;;;;;;69.07;34.60;;;1.90;99.90;;;;;;5073356;28;20030;-78
2023/12/31 01:08:45;;;;;;;53.47;30.40;;;1.80;99.90;;;;;;5073481;28;20466;-78
2023/12/31 01:11:11;;;;;;;54.65;28.67;;;1.80;99.90;;;;;;5055546;28;20040;-78
2023/12/31 01:13:37;;;;;;;61.33;32.13;;;1.80;99.90;;;;;;5073459;28;20029;-75
2023/12/31 01:16:04;;;;;;;56.42;28.45;;;1.70;99.90;;;;;;5055866;28;20017;-78
2023/12/31 01:18:30;;;;;;;49.65;26.13;;;1.70;99.90;;;;;;5054717;28;20482;-78
2023/12/31 01:20:56;;;;;;;50.50;26.90;;;1.60;99.90;;;;;;5073161;28;20039;-78
2023/12/31 01:23:21;;;;;;;46.25;23.60;;;1.60;99.90;;;;;;5072875;28;20359;-78
2023/12/31 01:25:47;;;;;;;78.05;25.52;;;1.50;99.90;;;;;;5073393;28;20025;-78
2023/12/31 01:28:13;;;;;;;47.17;23.17;;;1.40;99.90;;;;;;5055258;28;20488;-75
2023/12/31 01:30:38;;;;;;;55.13;25.92;;;1.40;99.90;;;;;;5057793;28;20027;-77
2023/12/31 01:33:04;;;;;;;46.10;25.02;;;1.40;99.90;;;;;;5054822;28;20483;-78
2023/12/31 01:35:30;;;;;;;45.83;23.55;;;1.40;99.90;;;;;;5072729;28;20474;-76
2023/12/31 01:37:55;;;;;;;48.28;24.65;;;1.30;99.90;;;;;;5072686;28;20032;-78
2023/12/31 01:40:21;;;;;;;46.53;23.48;;;1.30;99.90;;;;;;5072101;28;20052;-78
2023/12/31 01:42:46;;;;;;;44.45;23.02;;;1.20;99.90;;;;;;5054850;28;20021;-78
2023/12/31 01:45:12;;;;;;;42.85;22.73;;;1.20;99.90;;;;;;5055179;28;20036;-76
2023/12/31 01:47:38;;;;;;;48.28;24.75;;;1.20;99.90;;;;;;5072798;28;20481;-76
2023/12/31 01:50:05;;;;;;;45.05;21.83;;;1.10;99.90;;;;;;5072414;28;20099;-76
2023/12/31 01:52:32;;;;;;;49.88;23.25;;;1.10;99.90;;;;;;5072368;28;20025;-78
2023/12/31 01:55:00;;;;;;;47.97;25.08;;;1.10;99.90;;;;;;5060471;28;20507;-78
2023/12/31 01:57:29;;;;;;;53.42;26.60;;;1.10;99.90;;;;;;5076129;28;20027;-78
2023/12/31 01:59:56;;;;;;;51.00;25.80;;;1.00;99.90;;;;;;5058250;28;20559;-77
2023/12/31 02:02:25;;;;;;;52.72;25.63;;;0.90;99.90;;;;;;5061321;28;20025;-76
2023/12/31 02:04:51;;;;;;;59.65;27.98;;;0.90;99.90;;;;;;5055568;28;20489;-78
2023/12/31 02:07:17;;;;;;;63.35;29.48;;;0.90;99.90;;;;;;5065428;28;20039;-76
2023/12/31 02:09:44;;;;;;;147.57;38.60;;;0.90;99.90;;;;;;5072366;28;20402;-78
2023/12/31 02:12:09;;;;;;;89.28;33.40;;;0.80;99.90;;;;;;5082080;28;20020;-77
2023/12/31 02:14:35;;;;;;;72.20;30.73;;;0.80;99.90;;;;;;5077440;28;20545;-76
2023/12/31 02:17:01;;;;;;;63.60;26.85;;;0.70;99.90;;;;;;5083717;28;20520;-76
2023/12/31 02:19:26;;;;;;;73.40;30.10;;;0.70;99.90;;;;;;5072094;28;20029;-76
2023/12/31 02:21:52;;;;;;;58.10;26.83;;;0.70;99.90;;;;;;5080156;28;20032;-75
2023/12/31 02:24:20;;;;;;;71.18;29.25;;;0.70;99.90;;;;;;5061077;28;20115;-78
2023/12/31 02:26:46;;;;;;;76.50;30.88;;;0.60;99.90;;;;;;5074601;28;20032;-78
2023/12/31 02:29:12;;;;;;;71.38;30.85;;;0.60;99.90;;;;;;5087250;28;20073;-78
2023/12/31 02:31:37;;;;;;;73.28;29.42;;;0.60;99.90;;;;;;5074698;28;20107;-76
2023/12/31 02:34:05;;;;;;;62.22;26.67;;;0.50;99.90;;;;;;5078675;28;20099;-78
2023/12/31 02:36:31;;;;;;;77.63;27.17;;;0.50;99.90;;;;;;5073837;28;20077;-76
2023/12/31 02:38:56;;;;;;;72.78;29.30;;;0.50;99.90;;;;;;5058129;28;20405;-76
2023/12/31 02:41:22;;;;;;;70.20;29.05;;;0.50;99.90;;;;;;5075114;28;20120;-78
2023/12/31 02:43:48;;;;;;;88.45;29.35;;;0.40;99.90;;;;;;5071374;28;20040;-78
2023/12/31 02:46:13;;;;;;;59.67;27.38;;;0.40;99.90;;;;;;5052539;28;20044;-76
2023/12/31 02:48:39;;;;;;;62.65;27.75;;;0.40;99.90;;;;;;5080961;28;20050;-76
2023/12/31 02:51:07;;;;;;;59.72;27.67;;;0.40;99.90;;;;;;5082039;28;20028;-78
2023/12/31 02:53:33;;;;;;;57.60;25.35;;;0.40;99.90;;;;;;5053726;28;20020;-76
2023/12/31 02:56:00;;;;;;;62.20;26.65;;;0.40;99.90;;;;;;5069181;28;20494;-76
2023/12/31 02:58:25;;;;;;;54.28;24.65;;;0.30;99.90;;;;;;5053286;28;20024;-78
2023/12/31 03:00:51;;;;;;;58.65;23.92;;;0.30;99.90;;;;;;5075268;28;20024;-76
2023/12/31 03:03:17;;;;;;;50.38;25.30;;;0.30;99.90;;;;;;5056722;28;20537;-77
2023/12/31 03:05:42;;;;;;;44.55;23.88;;;0.30;99.90;;;;;;5071406;28;20036;-76
2023/12/31 03:08:08;;;;;;;56.42;26.73;;;0.20;99.90;;;;;;5085162;28;20021;-78
2023/12/31 03:10:34;;;;;;;49.28;23.80;;;0.20;99.90;;;;;;5059874;28;20075;-76
2023/12/31 03:12:59;;;;;;;44.13;22.08;;;0.20;99.90;;;;;;5071389;28;20032;-76
2023/12/31 03:15:25;;;;;;;49.88;24.08;;;0.20;99.90;;;;;;5063257;28;20024;-77
2023/12/31 03:17:51;;;;;;;55.95;24.20;;;0.20;99.90;;;;;;5060947;28;20038;-78
2023/12/31 03:20:17;;;;;;;48.75;23.42;;;0.20;99.90;;;;;;5057650;28;20409;-78
2023/12/31 03:22:45;;;;;;;41.15;22.02;;;0.20;99.90;;;;;;5052318;28;20016;-78
2023/12/31 03:25:11;;;;;;;50.20;22.83;;;0.10;99.90;;;;;;5061036;28;20032;-76
2023/12/31 03:27:37;;;;;;;43.50;22.30;;;0.10;99.90;;;;;;5077773;28;20032;-76
2023/12/31 03:30:03;;;;;;;39.90;21.02;;;0.10;99.90;;;;;;5082436;28;20017;-78
2023/12/31 03:32:28;;;;;;;64.38;26.85;;;0.10;99.90;;;;;;5073378;28;20052;-76
2023/12/31 03:34:54;;;;;;;54.75;23.95;;;0.10;99.90;;;;;;5059606;28;20439;-78
2023/12/31 03:37:20;;;;;;;44.60;22.25;;;0.10;99.90;;;;;;5075641;28;20082;-76
2023/12/31 03:39:45;;;;;;;46.90;23.17;;;0.10;99.90;;;;;;5073804;28;20665;-76
2023/12/31 03:42:11;;;;;;;40.78;21.80;;;0.00;99.90;;;;;;5057546;28;20055;-76
2023/12/31 03:44:36;;;;;;;45.25;22.17;;;0.00;99.90;;;;;;5080740;28;20036;-76
2023/12/31 03:47:02;;;;;;;40.60;20.58;;;0.00;99.90;;;;;;5077617;28;20025;-76
2023/12/31 03:49:28;;;;;;;50.13;22.70;;;0.00;99.90;;;;;;5074860;28;20125;-77
2023/12/31 03:51:53;;;;;;;40.85;20.90;;;0.00;99.90;;;;;;5065718;28;20028;-78
2023/12/31 03:54:19;;;;;;;41.83;20.48;;;-0.10;99.90;;;;;;5078585;28;20370;-77
2023/12/31 03:56:45;;;;;;;42.15;20.98;;;-0.10;99.90;;;;;;5082128;28;20024;-76
2023/12/31 03:59:10;;;;;;;51.92;22.23;;;-0.10;99.90;;;;;;5082254;28;20077;-76
2023/12/31 04:01:45;;;;;;;44.35;21.95;;;-0.10;99.90;;;;;;5089902;28;20034;-76
2023/12/31 04:04:15;;;;;;;47.63;21.70;;;-0.10;99.90;;;;;;5077402;28;20037;-77
2023/12/31 04:06:42;;;;;;;46.47;21.08;;;-0.10;99.90;;;;;;5074674;28;20032;-76
2023/12/31 04:09:09;;;;;;;40.58;20.45;;;-0.20;99.90;;;;;;5062101;28;20012;-77
2023/12/31 04:11:34;;;;;;;39.47;20.55;;;-0.20;99.90;;;;;;5064192;28;20024;-76
2023/12/31 04:14:00;;;;;;;39.55;20.83;;;-0.20;99.90;;;;;;5075953;28;20056;-75
2023/12/31 04:16:26;;;;;;;40.13;18.70;;;-0.20;99.90;;;;;;5066675;28;20032;-78
2023/12/31 04:18:51;;;;;;;40.65;21.17;;;-0.20;99.90;;;;;;5074187;28;20032;-76
2023/12/31 04:21:17;;;;;;;39.22;20.27;;;-0.30;99.90;;;;;;5084295;28;20035;-76
2023/12/31 04:23:43;;;;;;;33.45;18.85;;;-0.30;99.90;;;;;;5078593;28;20040;-77
2023/12/31 04:26:08;;;;;;;43.28;20.08;;;-0.30;99.90;;;;;;5059043;28;20057;-76
2023/12/31 04:28:34;;;;;;;35.45;18.20;;;-0.30;99.90;;;;;;5073954;28;20130;-76
2023/12/31 04:31:02;;;;;;;38.33;18.45;;;-0.30;99.90;;;;;;5077387;28;20390;-77
2023/12/31 04:33:28;;;;;;;38.15;18.08;;;-0.30;99.90;;;;;;5078232;28;20135;-78
2023/12/31 04:35:55;;;;;;;37.80;18.02;;;-0.30;99.90;;;;;;5073618;28;20053;-76
2023/12/31 04:38:20;;;;;;;42.65;19.42;;;-0.30;99.90;;;;;;5058245;28;20036;-77
2023/12/31 04:40:46;;;;;;;38.08;18.65;;;-0.30;99.90;;;;;;5058490;28;20029;-77
2023/12/31 04:43:11;;;;;;;38.20;17.75;;;-0.30;99.90;;;;;;5075017;28;20051;-77
2023/12/31 04:45:37;;;;;;;40.50;19.45;;;-0.30;99.90;;;;;;5081810;28;20032;-76
2023/12/31 04:48:03;;;;;;;42.83;19.50;;;-0.30;99.90;;;;;;5073062;28;20142;-78
2023/12/31 04:50:28;;;;;;;48.53;21.45;;;-0.30;99.90;;;;;;5073956;28;20024;-76
2023/12/31 04:52:55;;;;;;;53.47;20.55;;;-0.20;99.90;;;;;;5065029;28;20059;-77
2023/12/31 04:55:21;;;;;;;43.72;21.20;;;-0.10;99.90;;;;;;5073301;28;20074;-78
2023/12/31 04:57:49;;;;;;;48.60;19.00;;;-0.10;99.90;;;;;;5079212;28;20552;-77
2023/12/31 05:00:15;;;;;;;49.03;22.17;;;-0.10;99.90;;;;;;5058760;28;20490;-77
2023/12/31 05:02:41;;;;;;;51.85;21.45;;;0.00;99.90;;;;;;5076575;28;20024;-77
2023/12/31 05:05:07;;;;;;;40.17;20.25;;;0.00;99.90;;;;;;5054634;28;20505;-78
2023/12/31 05:07:32;;;;;;;44.78;20.55;;;0.00;99.90;;;;;;5072413;28;20044;-78
2023/12/31 05:09:58;;;;;;;38.38;18.85;;;0.00;99.90;;;;;;5077207;28;20044;-78
2023/12/31 05:12:24;;;;;;;44.28;20.98;;;-0.10;99.90;;;;;;5073783;28;20078;-78
2023/12/31 05:14:49;;;;;;;46.53;22.67;;;-0.10;99.90;;;;;;5055728;28;20017;-77
2023/12/31 05:17:15;;;;;;;46.35;21.02;;;-0.10;99.90;;;;;;5056682;28;20370;-76
2023/12/31 05:19:41;;;;;;;39.95;17.48;;;-0.20;99.90;;;;;;5072614;28;20025;-78
2023/12/31 05:22:07;;;;;;;43.47;17.67;;;-0.20;99.90;;;;;;5056272;28;20599;-76
2023/12/31 05:24:32;;;;;;;44.78;17.77;;;-0.30;99.90;;;;;;5080884;28;20093;-78
2023/12/31 05:26:58;;;;;;;42.10;17.90;;;-0.30;99.90;;;;;;5060335;28;20020;-77
2023/12/31 05:29:24;;;;;;;37.38;18.65;;;-0.30;99.90;;;;;;5071984;28;20048;-77
2023/12/31 05:31:49;;;;;;;42.55;18.60;;;-0.30;99.90;;;;;;5082285;28;20057;-77
2023/12/31 05:34:15;;;;;;;37.38;18.30;;;-0.40;99.90;;;;;;5074537;28;20428;-77
2023/12/31 05:36:41;;;;;;;41.55;17.65;;;-0.40;99.90;;;;;;5064247;28;20025;-77
2023/12/31 05:39:06;;;;;;;41.00;18.38;;;-0.40;99.90;;;;;;5072434;28;20020;-77
2023/12/31 05:41:32;;;;;;;35.55;17.75;;;-0.40;99.90;;;;;;5073171;28;20027;-76
2023/12/31 05:43:57;;;;;;;39.00;17.67;;;-0.40;99.90;;;;;;5073196;28;20406;-77
2023/12/31 05:46:23;;;;;;;41.50;17.83;;;-0.40;99.90;;;;;;5068969;28;20024;-76
2023/12/31 05:48:49;;;;;;;38.78;17.85;;;-0.50;99.90;;;;;;5070989;28;20284;-77
2023/12/31 05:51:14;;;;;;;37.75;17.35;;;-0.50;99.90;;;;;;5072566;28;20025;-78
2023/12/31 05:53:40;;;;;;;29.30;15.60;;;-0.50;99.90;;;;;;5080041;28;20040;-77
2023/12/31 05:56:06;;;;;;;37.50;17.27;;;-0.50;99.90;;;;;;5076123;28;20080;-76
2023/12/31 05:58:31;;;;;;;32.22;15.77;;;-0.50;99.90;;;;;;5056074;28;20032;-76
2023/12/31 06:00:58;;;;;;;37.22;19.33;;;-0.50;99.90;;;;;;5081721;28;20024;-78
2023/12/31 06:03:24;;;;;;;34.90;17.58;;;-0.50;99.90;;;;;;5058352;28;20024;-78
2023/12/31 06:05:50;;;;;;;34.33;17.10;;;-0.50;99.90;;;;;;5075747;28;20028;-76
2023/12/31 06:08:16;;;;;;;32.90;15.88;;;-0.50;99.90;;;;;;5067008;28;20027;-76
2023/12/31 06:10:41;;;;;;;32.33;16.67;;;-0.50;99.90;;;;;;5079270;28;20074;-77
2023/12/31 06:13:07;;;;;;;31.45;15.65;;;-0.50;99.90;;;;;;5054892;28;20090;-76
2023/12/31 06:15:33;;;;;;;35.17;17.00;;;-0.50;99.90;;;;;;5078590;28;20099;-76
2023/12/31 06:17:59;;;;;;;36.28;16.55;;;-0.50;99.90;;;;;;5071744;28;20470;-76
2023/12/31 06:20:24;;;;;;;32.65;17.15;;;-0.50;99.90;;;;;;5071936;28;20028;-77
2023/12/31 06:22:50;;;;;;;31.83;16.25;;;-0.50;99.90;;;;;;5053351;28;20024;-76
2023/12/31 06:25:16;;;;;;;32.38;16.45;;;-0.50;99.90;;;;;;5078366;28;20039;-78
2023/12/31 06:27:41;;;;;;;34.70;16.88;;;-0.50;99.90;;;;;;5071663;28;20509;-76
2023/12/31 06:30:07;;;;;;;30.40;15.20;;;-0.50;99.90;;;;;;5074422;28;20032;-75
2023/12/31 06:32:33;;;;;;;30.55;16.13;;;-0.50;99.90;;;;;;5053344;28;20036;-75
2023/12/31 06:34:59;;;;;;;34.95;15.20;;;-0.50;99.90;;;;;;5073983;28;20047;-75
2023/12/31 06:37:25;;;;;;;34.72;15.80;;;-0.50;99.90;;;;;;5064756;28;20028;-75
2023/12/31 06:39:51;;;;;;;39.17;17.75;;;-0.50;99.90;;;;;;5060334;28;20502;-78
2023/12/31 06:42:17;;;;;;;40.58;19.58;;;-0.40;99.90;;;;;;5074603;28;20124;-78
2023/12/31 06:44:42;;;;;;;37.13;18.10;;;-0.30;99.90;;;;;;5057170;28;20398;-78
2023/12/31 06:47:08;;;;;;;44.25;18.63;;;-0.30;99.90;;;;;;5070624;28;20108;-76
2023/12/31 06:49:34;;;;;;;34.50;17.17;;;-0.30;99.90;;;;;;5054674;28;20397;-75
2023/12/31 06:52:00;;;;;;;35.10;17.52;;;-0.40;99.90;;;;;;5054250;28;20017;-75
2023/12/31 06:54:27;;;;;;;31.85;16.63;;;-0.40;99.90;;;;;;5056473;28;20394;-76
2023/12/31 06:56:53;;;;;;;31.98;15.70;;;-0.40;99.90;;;;;;5080079;28;20431;-76
2023/12/31 06:59:19;;;;;;;31.35;15.00;;;-0.40;99.90;;;;;;5060113;28;20032;-75
2023/12/31 07:01:44;;;;;;;30.67;15.20;;;-0.40;99.90;;;;;;5062086;28;20029;-78
2023/12/31 07:04:10;;;;;;;35.72;15.88;;;-0.40;99.90;;;;;;5052597;28;20370;-78
2023/12/31 07:06:36;;;;;;;31.70;15.30;;;-0.40;99.90;;;;;;5072986;28;20029;-78
2023/12/31 07:09:01;;;;;;;31.20;16.15;;;-0.40;99.90;;;;;;5072693;28;20028;-78
2023/12/31 07:11:27;;;;;;;32.85;15.43;;;-0.40;99.90;;;;;;5076242;28;20126;-78
2023/12/31 07:13:52;;;;;;;35.30;15.63;;;-0.30;99.90;;;;;;5057776;28;20013;-78
2023/12/31 07:16:18;;;;;;;31.98;15.77;;;-0.30;99.90;;;;;;5075930;28;21213;-76
2023/12/31 07:18:44;;;;;;;29.83;16.63;;;-0.20;99.90;;;;;;5057798;28;20379;-75
2023/12/31 07:21:10;;;;;;;38.95;16.08;;;-0.20;99.90;;;;;;5074025;28;20033;-75
2023/12/31 07:23:36;;;;;;;32.60;16.92;;;-0.20;99.90;;;;;;5073901;28;20040;-77
2023/12/31 07:26:03;;;;;;;28.67;14.85;;;-0.20;99.90;;;;;;5056487;28;20030;-75
2023/12/31 07:28:29;;;;;;;30.85;15.23;;;-0.10;99.90;;;;;;5074555;28;20024;-75
2023/12/31 07:30:55;;;;;;;37.03;16.85;;;-0.10;99.90;;;;;;5075404;28;20099;-76
2023/12/31 07:33:20;;;;;;;33.60;17.15;;;-0.10;99.90;;;;;;5075020;28;20104;-76
2023/12/31 07:35:46;;;;;;;30.13;15.23;;;-0.10;99.90;;;;;;5073551;28;20442;-77
2023/12/31 07:38:13;;;;;;;28.27;14.73;;;-0.10;99.90;;;;;;5073766;28;20398;-76
2023/12/31 07:40:38;;;;;;;32.33;16.33;;;0.00;99.90;;;;;;5074773;28;20462;-77
2023/12/31 07:43:04;;;;;;;33.15;17.08;;;0.10;99.90;;;;;;5073453;28;20021;-77
2023/12/31 07:45:29;;;;;;;36.78;19.52;;;0.10;99.90;;;;;;5074871;28;20455;-76
2023/12/31 07:47:55;;;;;;;36.25;18.77;;;0.20;99.90;;;;;;5074757;28;20023;-75
2023/12/31 07:50:21;;;;;;;32.85;17.65;;;0.30;99.90;;;;;;5074808;28;20486;-76
2023/12/31 07:52:47;;;;;;;27.55;15.15;;;0.40;99.90;;;;;;5056947;28;20035;-76
2023/12/31 07:55:13;;;;;;;24.83;14.02;;;0.40;99.90;;;;;;5057417;28;20106;-75
2023/12/31 07:57:38;;;;;;;24.77;14.02;;;0.50;99.90;;;;;;5078261;28;20016;-77
2023/12/31 08:00:08;;;;;;;36.45;19.05;;;0.50;99.90;;;;;;5078271;28;20029;-76
2023/12/31 08:02:34;;;;;;;34.67;18.15;;;0.60;99.90;;;;;;5074706;28;20036;-75
2023/12/31 08:04:59;;;;;;;42.05;20.80;;;0.60;99.90;;;;;;5072540;28;20032;-75
2023/12/31 08:07:25;;;;;;;38.92;22.38;;;0.70;99.90;;;;;;5074557;28;20082;-76
2023/12/31 08:09:50;;;;;;;42.30;20.02;;;0.70;99.90;;;;;;5074862;28;20099;-75
2023/12/31 08:12:16;;;;;;;43.78;21.58;;;0.80;99.90;;;;;;5074357;28;20020;-77
2023/12/31 08:14:42;;;;;;;40.03;20.75;;;0.80;99.90;;;;;;5073343;28;20039;-77
2023/12/31 08:17:07;;;;;;;46.22;21.70;;;0.90;99.90;;;;;;5073602;28;20021;-75
2023/12/31 08:19:33;;;;;;;44.17;22.70;;;0.90;99.90;;;;;;5074532;28;20035;-76
2023/12/31 08:21:59;;;;;;;37.88;21.08;;;1.00;99.90;;;;;;5073860;28;20020;-77
2023/12/31 08:24:25;;;;;;;39.78;21.02;;;1.00;99.90;;;;;;5074584;28;20398;-76
2023/12/31 08:26:51;;;;;;;44.28;24.38;;;1.00;99.90;;;;;;5056165;28;20017;-77
2023/12/31 08:29:17;;;;;;;50.50;21.77;;;1.00;99.90;;;;;;5074500;28;20021;-77
2023/12/31 08:31:52;;;;;;;37.97;20.65;;;1.10;99.90;;;;;;5055027;28;20070;-76
2023/12/31 08:34:18;;;;;;;40.45;24.10;;;1.10;99.90;;;;;;5075946;28;20024;-75
2023/12/31 08:36:44;;;;;;;42.85;23.33;;;1.20;99.90;;;;;;5056213;28;20036;-76
2023/12/31 08:39:10;;;;;;;52.78;27.23;;;1.20;99.90;;;;;;5074083;28;20021;-76
2023/12/31 08:41:35;;;;;;;50.60;25.63;;;1.20;99.90;;;;;;5074205;28;20393;-75
2023/12/31 08:44:01;;;;;;;47.60;24.63;;;1.30;99.90;;;;;;5073593;28;20036;-77
2023/12/31 08:46:27;;;;;;;52.88;27.33;;;1.40;99.90;;;;;;5054385;28;20711;-75
2023/12/31 08:48:52;;;;;;;59.03;32.60;;;1.40;99.90;;;;;;5073008;28;20067;-75
2023/12/31 08:51:19;;;;;;;54.45;30.77;;;1.50;99.90;;;;;;5072076;28;20107;-76
2023/12/31 08:53:44;;;;;;;42.15;22.90;;;1.60;99.90;;;;;;5073702;28;20043;-75
2023/12/31 08:56:10;;;;;;;44.28;22.70;;;1.70;99.90;;;;;;5074089;28;20024;-74
2023/12/31 08:58:35;;;;;;;30.33;15.70;;;1.80;99.90;;;;;;5073917;28;20032;-76
2023/12/31 09:01:02;;;;;;;32.13;16.80;;;1.90;99.90;;;;;;5073624;28;20025;-75
2023/12/31 09:03:28;;;;;;;34.45;15.88;;;1.90;99.90;;;;;;5055197;28;20028;-76
2023/12/31 09:05:54;;;;;;;34.97;16.65;;;2.10;99.90;;;;;;5073715;28;20381;-76
2023/12/31 09:08:19;;;;;;;33.92;16.75;;;2.20;99.90;;;;;;5055699;28;20024;-75
2023/12/31 09:10:45;;;;;;;32.17;18.00;;;2.20;99.90;;;;;;5073644;28;20024;-76
2023/12/31 09:13:11;;;;;;;35.33;20.25;;;2.30;99.90;;;;;;5073770;28;20432;-75
2023/12/31 09:15:37;;;;;;;40.50;20.38;;;2.40;99.90;;;;;;5072986;28;20203;-76
2023/12/31 09:18:03;;;;;;;40.28;21.55;;;2.40;99.90;;;;;;5073549;28;20020;-76
2023/12/31 09:20:29;;;;;;;37.10;22.83;;;2.50;99.90;;;;;;5061100;28;20020;-76
2023/12/31 09:22:55;;;;;;;44.22;24.75;;;2.50;99.90;;;;;;5073299;28;20097;-76
2023/12/31 09:25:20;;;;;;;49.03;26.83;;;2.50;99.90;;;;;;5055175;28;20563;-75
2023/12/31 09:27:47;;;;;;;47.60;26.30;;;2.60;99.90;;;;;;5055271;28;20028;-76
2023/12/31 09:30:13;;;;;;;42.03;23.30;;;2.70;99.90;;;;;;5073373;28;20382;-77
2023/12/31 09:32:39;;;;;;;35.70;18.17;;;2.80;99.90;;;;;;5072756;28;20048;-76
2023/12/31 09:35:04;;;;;;;32.65;15.88;;;2.90;99.90;;;;;;5055774;28;20032;-77
2023/12/31 09:37:31;;;;;;;33.45;15.32;;;3.00;99.90;;;;;;5049435;28;20020;-77
2023/12/31 09:39:57;;;;;;;27.65;16.30;;;3.20;99.90;;;;;;5073470;28;20013;-75
2023/12/31 09:42:45;;;;;;;31.23;15.20;;;3.30;99.90;;;;;;5054672;28;20090;-75
2023/12/31 09:45:14;;;;;;;26.00;14.18;;;3.40;99.90;;;;;;5050711;28;20032;-77
2023/12/31 09:47:41;;;;;;;24.77;14.48;;;3.50;99.90;;;;;;5072737;28;20086;-78
2023/12/31 09:50:08;;;;;;;24.17;14.13;;;3.60;99.90;;;;;;5056573;28;20068;-78
2023/12/31 09:52:34;;;;;;;25.65;14.10;;;3.70;99.90;;;;;;5059092;28;20078;-77
2023/12/31 09:55:01;;;;;;;132.48;63.83;;;3.70;99.90;;;;;;5071920;28;20031;-77
2023/12/31 09:57:29;;;;;;;206.77;136.70;;;3.90;99.90;;;;;;5072539;28;20032;-77
2023/12/31 09:59:55;;;;;;;151.48;112.15;;;4.00;99.90;;;;;;5053332;28;20026;-78
2023/12/31 10:02:26;;;;;;;111.18;75.18;;;4.10;99.90;;;;;;5077224;28;20024;-76
2023/12/31 10:04:51;;;;;;;67.05;38.53;;;4.10;99.90;;;;;;5053416;28;20032;-77
2023/12/31 10:07:17;;;;;;;48.33;31.23;;;4.20;99.90;;;;;;5054104;28;20453;-77
2023/12/31 10:09:43;;;;;;;29.70;18.92;;;4.30;99.90;;;;;;5054537;28;20055;-77
2023/12/31 10:12:10;;;;;;;47.42;27.35;;;4.40;99.90;;;;;;5054641;28;20016;-77
2023/12/31 10:14:35;;;;;;;31.13;18.63;;;4.50;99.90;;;;;;5054029;28;20111;-78
2023/12/31 10:17:07;;;;;;;287.25;136.68;;;4.60;99.90;;;;;;5072693;28;20055;-78
2023/12/31 10:19:33;;;;;;;281.97;106.13;;;4.60;99.90;;;;;;5052657;28;20074;-77
2023/12/31 10:21:59;;;;;;;572.42;238.07;;;4.60;99.90;;;;;;5054880;28;20401;-78
2023/12/31 10:24:29;;;;;;;327.83;112.00;;;4.70;99.90;;;;;;5053526;28;20111;-79
2023/12/31 10:27:03;;;;;;;674.60;274.05;;;4.70;99.90;;;;;;5071171;28;20550;-75
2023/12/31 10:29:29;;;;;;;254.20;86.05;;;4.80;99.90;;;;;;5070598;28;20093;-75
2023/12/31 10:31:54;;;;;;;163.82;56.53;;;4.90;99.90;;;;;;5052829;28;20179;-75
2023/12/31 10:34:20;;;;;;;89.20;33.22;;;4.90;99.90;;;;;;5071860;28;20504;-75
2023/12/31 10:36:47;;;;;;;119.10;44.97;;;5.00;99.90;;;;;;5069923;28;20040;-77
2023/12/31 10:39:29;;;;;;;80.85;33.15;;;5.10;99.90;;;;;;5053654;28;20017;-76
2023/12/31 10:42:00;;;;;;;218.70;82.73;;;5.10;99.90;;;;;;5053226;28;21091;-76
2023/12/31 10:44:26;;;;;;;216.77;82.40;;;5.20;99.90;;;;;;5046568;28;20751;-74
2023/12/31 10:47:03;;;;;;;193.15;74.90;;;5.20;99.90;;;;;;5071527;28;20016;-75
2023/12/31 10:49:30;;;;;;;306.67;112.88;;;5.30;99.90;;;;;;5067817;28;20032;-75
2023/12/31 10:51:59;;;;;;;129.15;48.45;;;5.30;99.90;;;;;;5069703;28;20024;-75
2023/12/31 10:54:31;;;;;;;109.97;41.08;;;5.40;99.90;;;;;;5070525;28;20020;-75
2023/12/31 10:56:58;;;;;;;39.20;14.93;;;5.40;99.90;;;;;;5070480;28;20028;-79
2023/12/31 10:59:25;;;;;;;35.38;18.65;;;5.50;99.90;;;;;;5047061;28;20826;-79
2023/12/31 11:01:52;;;;;;;14.20;8.65;;;5.60;99.90;;;;;;5054265;28;20494;-78
2023/12/31 11:04:21;;;;;;;40.22;19.80;;;5.70;99.90;;;;;;5071460;28;20039;-80
2023/12/31 11:06:47;;;;;;;32.92;17.85;;;5.70;99.90;;;;;;5053638;28;20020;-80
2023/12/31 11:09:16;;;;;;;20.63;11.60;;;5.80;99.90;;;;;;5071539;28;20100;-78
2023/12/31 11:11:42;;;;;;;20.98;11.32;;;5.90;99.90;;;;;;5051976;28;20020;-78
2023/12/31 11:14:12;;;;;;;34.13;18.15;;;5.90;99.90;;;;;;5069302;28;20013;-78
2023/12/31 11:16:53;;;;;;;33.95;19.60;;;6.00;99.90;;;;;;5065181;28;20070;-78
2023/12/31 11:19:49;;;;;;;27.38;17.02;;;6.00;99.90;;;;;;5074387;28;20025;-77
2023/12/31 11:22:54;;;;;;;22.02;12.60;;;6.10;99.90;;;;;;5067564;28;20021;-74
2023/12/31 11:25:21;;;;;;;13.20;8.90;;;6.10;99.90;;;;;;5062734;28;20141;-75
2023/12/31 11:27:50;;;;;;;8.43;6.00;;;6.10;99.90;;;;;;5049510;28;20033;-76
2023/12/31 11:30:52;;;;;;;10.82;6.50;;;6.20;99.90;;;;;;5050182;28;20021;-75
2023/12/31 11:33:33;;;;;;;13.85;8.25;;;6.20;99.90;;;;;;5045278;28;20086;-75
2023/12/31 11:36:17;;;;;;;10.55;7.18;;;6.30;99.90;;;;;;5050465;28;20104;-75
2023/12/31 11:39:06;;;;;;;12.40;7.13;;;6.30;99.90;;;;;;5051135;28;20017;-75
2023/12/31 11:41:34;;;;;;;11.88;6.95;;;6.30;99.90;;;;;;5054373;28;20419;-75
2023/12/31 11:44:00;;;;;;;13.80;8.02;;;6.30;99.90;;;;;;5071495;28;20032;-74
2023/12/31 11:46:40;;;;;;;9.38;7.20;;;6.30;99.90;;;;;;5049026;28;20036;-75
2023/12/31 11:49:07;;;;;;;11.00;7.35;;;6.30;99.90;;;;;;5053506;28;20048;-75
2023/12/31 11:51:58;;;;;;;11.43;6.03;;;6.30;99.90;;;;;;5053003;28;20788;-74
2023/12/31 11:54:34;;;;;;;13.32;6.68;;;6.40;99.90;;;;;;5071321;28;20021;-75
2023/12/31 11:57:01;;;;;;;12.85;7.57;;;6.30;99.90;;;;;;5073539;28;20024;-75
2023/12/31 11:59:26;;;;;;;14.40;8.55;;;6.40;99.90;;;;;;5074802;28;20429;-75
2023/12/31 12:01:53;;;;;;;21.05;12.02;;;6.40;99.90;;;;;;5074749;28;20032;-74
2023/12/31 12:04:19;;;;;;;21.98;13.70;;;6.40;99.90;;;;;;5056429;28;20067;-75
2023/12/31 12:06:45;;;;;;;19.90;12.38;;;6.40;99.90;;;;;;5056690;28;20101;-75
2023/12/31 12:09:11;;;;;;;26.23;14.98;;;6.40;99.90;;;;;;5074910;28;20478;-74
2023/12/31 12:11:43;;;;;;;19.50;11.65;;;6.50;99.90;;;;;;5056870;28;20016;-74
2023/12/31 12:14:10;;;;;;;20.60;11.73;;;6.60;99.90;;;;;;5074806;28;20100;-74
2023/12/31 12:16:37;;;;;;;23.48;12.38;;;6.60;99.90;;;;;;5074347;28;20079;-74
2023/12/31 12:19:05;;;;;;;36.00;19.17;;;6.60;99.90;;;;;;5056495;28;20021;-74
2023/12/31 12:21:31;;;;;;;19.35;10.93;;;6.80;99.90;;;;;;5054586;28;20048;-76
2023/12/31 12:23:57;;;;;;;23.45;12.20;;;6.70;99.90;;;;;;5074322;28;20032;-75
2023/12/31 12:26:23;;;;;;;21.42;11.60;;;6.70;99.90;;;;;;5074706;28;20028;-74
2023/12/31 12:28:55;;;;;;;22.35;12.18;;;6.80;99.90;;;;;;5074378;28;20493;-74
2023/12/31 12:31:22;;;;;;;21.35;11.73;;;6.80;99.90;;;;;;5074569;28;20107;-75